CYSB

Sudbury Airport

Sudbury, , Canada
METAR CYSB 250000Z 23014G21KT 25SM FEW080 SCT160 BKN220 23/13 A2993 RMK AC1AC2CI4 SLP138 DENSITY ALT 2300FT
Observed Flight Rules
May-25 @ 00:00 UTC (58 minutes ago) Visual Flight Rules
Wind Visibility Clouds
230° at 14 knots
 Gusting to 21 knots
25 miles
  • Few at 8,000' AGL
  • Scattered at 16,000' AGL
  • Broken at 22,000' AGL
Temperatures Readings
Current 23°C / 73°F
Dewpoint 13°C / 55°F
Humidity 53%
Altimeter 29.93" Hg
Pressure 1013.8 hPa
Elevation 348
METAR CYSB 250000Z 23014G21KT 25SM FEW080 SCT160 BKN220 23/13 A2993 RMK AC1AC2CI4 SLP138 DENSITY ALT 2300FT
Observed Flight Rules
May-25 @ 00:00 UTC
(58 minutes ago)
VFR
Wind Visibility
230° at 14 knots
 Gusting to 21 knots
25 miles
Clouds
  • Few at 8,000' AGL
  • Scattered at 16,000' AGL
  • Broken at 22,000' AGL
Temperature Dewpoint
23°C / 73°F 13°C / 55°F
Humidity Altimeter Pressure
53% 29.93" Hg 1013.8 hPa